createdAt,value
2018-11-10T00:00:15.248Z,9.00
2018-11-10T00:02:43.186Z,9.10
2018-11-10T00:05:10.762Z,9.00
2018-11-10T00:07:38.426Z,9.00
2018-11-10T00:10:06.087Z,9.00
2018-11-10T00:12:33.583Z,9.00
2018-11-10T00:15:01.134Z,8.90
2018-11-10T00:17:28.649Z,8.90
2018-11-10T00:19:56.229Z,8.90
2018-11-10T00:22:23.807Z,8.90
2018-11-10T00:24:51.469Z,9.00
2018-11-10T00:27:19.108Z,9.00
2018-11-10T00:29:46.659Z,8.90
2018-11-10T00:32:17.087Z,8.90
2018-11-10T00:34:44.653Z,8.90
2018-11-10T00:37:12.201Z,8.80
2018-11-10T00:39:39.803Z,8.70
2018-11-10T00:42:07.441Z,8.70
2018-11-10T00:44:35.018Z,8.70
2018-11-10T00:47:02.625Z,8.70
2018-11-10T00:49:30.213Z,8.70
2018-11-10T00:51:57.753Z,8.80
2018-11-10T00:54:25.438Z,8.70
2018-11-10T00:56:53.057Z,8.70
2018-11-10T00:59:20.861Z,8.80
2018-11-10T01:01:48.555Z,8.70
2018-11-10T01:04:16.136Z,8.80
2018-11-10T01:06:43.672Z,8.80
2018-11-10T01:09:11.224Z,8.80
2018-11-10T01:11:38.844Z,8.80
2018-11-10T01:14:06.948Z,8.80
2018-11-10T01:16:34.480Z,8.80
2018-11-10T01:19:02.001Z,8.70
2018-11-10T01:21:29.554Z,8.70
2018-11-10T01:23:57.177Z,8.70
2018-11-10T01:26:24.741Z,8.70
2018-11-10T01:28:52.392Z,8.70
2018-11-10T01:31:19.982Z,8.70
2018-11-10T01:33:47.589Z,8.70
2018-11-10T01:36:15.114Z,8.80
2018-11-10T01:38:42.678Z,8.80
2018-11-10T01:41:10.200Z,8.70
2018-11-10T01:43:37.798Z,8.70
2018-11-10T01:46:05.420Z,8.70
2018-11-10T01:48:32.988Z,8.70
2018-11-10T01:51:00.574Z,8.70
2018-11-10T01:53:28.230Z,8.70
2018-11-10T01:55:55.897Z,8.70
2018-11-10T01:58:23.490Z,8.70
2018-11-10T02:00:51.172Z,8.70
2018-11-10T02:03:18.806Z,8.70
2018-11-10T02:05:46.362Z,8.70
2018-11-10T02:08:13.922Z,8.70
2018-11-10T02:10:41.574Z,8.70
2018-11-10T02:13:09.146Z,8.70
2018-11-10T02:15:36.736Z,8.70
2018-11-10T02:18:04.351Z,8.70
2018-11-10T02:20:31.958Z,8.70
2018-11-10T02:22:59.563Z,8.70
2018-11-10T02:25:27.105Z,8.70
2018-11-10T02:27:54.839Z,8.70
2018-11-10T02:30:22.530Z,8.60
2018-11-10T02:32:50.153Z,8.60
2018-11-10T02:35:17.736Z,8.90
2018-11-10T02:37:45.437Z,9.20
2018-11-10T02:40:13.962Z,9.60
2018-11-10T02:42:41.798Z,10.10
2018-11-10T02:45:10.558Z,10.50
2018-11-10T02:47:38.137Z,10.90
2018-11-10T02:50:05.773Z,11.20
2018-11-10T02:52:33.399Z,11.40
2018-11-10T02:55:00.937Z,11.40
2018-11-10T02:57:28.500Z,11.40
2018-11-10T02:59:56.097Z,11.40
2018-11-10T03:02:23.747Z,11.50
2018-11-10T03:04:51.400Z,11.60
2018-11-10T03:07:19.061Z,11.70
2018-11-10T03:09:46.622Z,11.90
2018-11-10T03:12:14.183Z,12.20
2018-11-10T03:14:41.809Z,12.30
2018-11-10T03:17:09.374Z,12.40
2018-11-10T03:19:36.918Z,12.10
2018-11-10T03:22:04.735Z,11.60
2018-11-10T03:24:32.304Z,11.10
2018-11-10T03:26:59.817Z,10.70
2018-11-10T03:29:27.379Z,10.30
2018-11-10T03:31:54.954Z,10.10
2018-11-10T03:34:22.619Z,9.90
2018-11-10T03:36:50.273Z,9.60
2018-11-10T03:39:17.837Z,9.50
2018-11-10T03:41:45.383Z,9.40
2018-11-10T03:44:12.913Z,9.20
2018-11-10T03:46:40.550Z,9.10
2018-11-10T03:49:08.108Z,9.00
2018-11-10T03:51:35.688Z,9.00
2018-11-10T03:54:03.571Z,8.90
2018-11-10T03:56:31.185Z,8.90
2018-11-10T03:58:58.710Z,8.90
2018-11-10T04:01:26.226Z,8.90
2018-11-10T04:03:53.779Z,8.90
2018-11-10T04:06:21.676Z,8.80
2018-11-10T04:08:49.388Z,8.80
2018-11-10T04:11:17.016Z,8.80
2018-11-10T04:13:44.636Z,8.70
2018-11-10T04:16:12.158Z,8.60
2018-11-10T04:18:39.702Z,8.60
2018-11-10T04:21:07.302Z,8.60
2018-11-10T04:23:34.852Z,8.60
2018-11-10T04:26:02.464Z,8.60
2018-11-10T04:28:29.980Z,8.50
2018-11-10T04:30:57.520Z,8.50
2018-11-10T04:33:25.064Z,8.50
2018-11-10T04:35:52.690Z,8.50
2018-11-10T04:38:20.289Z,8.50
2018-11-10T04:40:47.965Z,8.50
2018-11-10T04:43:15.581Z,8.50
2018-11-10T04:45:43.161Z,8.50
2018-11-10T04:48:10.737Z,8.50
2018-11-10T04:50:38.295Z,8.50
2018-11-10T04:53:05.991Z,8.50
2018-11-10T04:55:33.557Z,8.50
2018-11-10T04:58:01.126Z,8.50
2018-11-10T05:00:28.654Z,8.50
2018-11-10T05:02:56.235Z,8.50
2018-11-10T05:05:23.838Z,8.50
2018-11-10T05:07:51.428Z,8.40
2018-11-10T05:10:19.127Z,8.50
2018-11-10T05:12:46.805Z,8.50
2018-11-10T05:15:14.418Z,8.50
2018-11-10T05:17:42.045Z,8.50
2018-11-10T05:20:09.642Z,8.50
2018-11-10T05:22:37.230Z,8.40
2018-11-10T05:25:05.511Z,8.40
2018-11-10T05:27:33.079Z,8.40
2018-11-10T05:30:00.693Z,8.40
2018-11-10T05:32:28.237Z,8.40
2018-11-10T05:34:55.815Z,8.40
2018-11-10T05:37:23.440Z,8.30
2018-11-10T05:39:51.105Z,8.30
2018-11-10T05:42:18.755Z,8.20
2018-11-10T05:44:46.446Z,8.20
2018-11-10T05:47:14.025Z,8.20
2018-11-10T05:49:41.565Z,8.20
2018-11-10T05:52:09.141Z,8.10
2018-11-10T05:54:36.716Z,8.10
2018-11-10T05:57:04.442Z,8.10
2018-11-10T05:59:31.963Z,8.10
2018-11-10T06:01:59.527Z,8.10
2018-11-10T06:04:27.061Z,8.20
2018-11-10T06:06:54.625Z,8.20
2018-11-10T06:09:22.460Z,8.20
2018-11-10T06:11:49.986Z,8.20
2018-11-10T06:14:17.676Z,8.20
2018-11-10T06:16:45.238Z,8.20
2018-11-10T06:19:12.789Z,8.20
2018-11-10T06:21:40.340Z,8.30
2018-11-10T06:24:08.231Z,8.30
2018-11-10T06:26:35.773Z,8.60
2018-11-10T06:29:03.339Z,9.30
2018-11-10T06:31:30.864Z,9.70
2018-11-10T06:33:58.384Z,10.10
2018-11-10T06:36:25.988Z,10.40
2018-11-10T06:38:54.874Z,10.90
2018-11-10T06:41:22.519Z,11.30
2018-11-10T06:43:50.120Z,11.60
2018-11-10T06:46:18.650Z,11.60
2018-11-10T06:48:46.360Z,11.70
2018-11-10T06:51:13.937Z,11.60
2018-11-10T06:53:42.388Z,11.60
2018-11-10T06:56:10.009Z,11.40
2018-11-10T06:58:37.617Z,11.00
2018-11-10T07:01:05.591Z,10.70
2018-11-10T07:03:33.239Z,10.50
2018-11-10T07:06:00.938Z,10.40
2018-11-10T07:08:28.957Z,10.40
2018-11-10T07:10:56.550Z,10.40
2018-11-10T07:13:24.085Z,10.50
2018-11-10T07:15:51.765Z,10.40
2018-11-10T07:18:19.518Z,10.20
2018-11-10T07:20:47.434Z,10.00
2018-11-10T07:23:14.983Z,9.80
2018-11-10T07:25:42.534Z,9.60
2018-11-10T07:28:10.422Z,9.50
2018-11-10T07:30:38.038Z,9.40
2018-11-10T07:33:05.648Z,9.20
2018-11-10T07:35:33.207Z,9.10
2018-11-10T07:38:00.806Z,9.00
2018-11-10T07:40:28.373Z,8.90
2018-11-10T07:42:55.967Z,8.90
2018-11-10T07:45:23.504Z,8.90
2018-11-10T07:47:51.126Z,8.90
2018-11-10T07:50:19.008Z,8.90
2018-11-10T07:52:46.749Z,8.90
2018-11-10T07:55:15.034Z,9.00
2018-11-10T07:57:42.681Z,8.90
2018-11-10T08:00:12.759Z,8.90
2018-11-10T08:02:40.561Z,8.90
2018-11-10T08:05:09.229Z,8.90
2018-11-10T08:07:37.453Z,8.80
2018-11-10T08:10:06.177Z,8.70
2018-11-10T08:12:33.706Z,8.70
2018-11-10T08:15:01.314Z,8.70
2018-11-10T08:17:28.879Z,8.70
2018-11-10T08:19:56.425Z,8.70
2018-11-10T08:22:24.013Z,8.80
2018-11-10T08:24:51.695Z,8.80
2018-11-10T08:27:19.549Z,8.90
2018-11-10T08:29:47.135Z,8.90
2018-11-10T08:32:14.730Z,9.00
2018-11-10T08:34:42.354Z,9.00
2018-11-10T08:37:09.952Z,9.10
2018-11-10T08:39:37.508Z,9.10
2018-11-10T08:42:05.169Z,9.20
2018-11-10T08:44:32.735Z,9.30
2018-11-10T08:47:00.319Z,9.30
2018-11-10T08:49:27.947Z,9.20
2018-11-10T08:51:55.561Z,9.30
2018-11-10T08:54:23.246Z,9.20
2018-11-10T08:56:51.421Z,9.20
2018-11-10T08:59:19.034Z,9.30
2018-11-10T09:01:46.614Z,9.30
2018-11-10T09:04:14.191Z,9.40
2018-11-10T09:06:41.823Z,9.50
2018-11-10T09:09:10.206Z,9.60
2018-11-10T09:11:37.848Z,9.60
2018-11-10T09:14:05.486Z,9.60
2018-11-10T09:16:33.125Z,9.60
2018-11-10T09:19:00.751Z,9.70
2018-11-10T09:21:28.596Z,9.70
2018-11-10T09:23:56.130Z,9.70
2018-11-10T09:26:24.106Z,9.70
2018-11-10T09:28:51.702Z,9.70
2018-11-10T09:31:19.314Z,9.80
2018-11-10T09:33:46.943Z,9.80
2018-11-10T09:36:14.553Z,9.90
2018-11-10T09:38:42.098Z,10.00
2018-11-10T09:41:12.615Z,10.10
2018-11-10T09:43:40.180Z,10.40
2018-11-10T09:46:07.794Z,10.60
2018-11-10T09:48:35.594Z,10.80
2018-11-10T09:51:03.202Z,11.00
2018-11-10T09:53:31.054Z,11.10
2018-11-10T09:55:58.667Z,11.20
2018-11-10T09:58:26.236Z,11.20
2018-11-10T10:00:53.869Z,11.10
2018-11-10T10:03:21.462Z,11.00
2018-11-10T10:05:49.075Z,10.90
2018-11-10T10:08:16.657Z,10.80
2018-11-10T10:10:44.238Z,10.80
2018-11-10T10:13:11.808Z,10.70
2018-11-10T10:15:39.390Z,10.80
2018-11-10T10:18:07.005Z,10.80
2018-11-10T10:20:34.777Z,10.80
2018-11-10T10:23:02.397Z,10.80
2018-11-10T10:25:29.985Z,10.80
2018-11-10T10:27:57.619Z,10.80
2018-11-10T10:30:25.759Z,10.70
2018-11-10T10:32:53.362Z,10.70
2018-11-10T10:35:21.217Z,10.60
2018-11-10T10:37:49.646Z,10.70
2018-11-10T10:40:17.382Z,10.70
2018-11-10T10:42:45.441Z,10.80
2018-11-10T10:45:14.465Z,10.80
2018-11-10T10:47:42.277Z,10.90
2018-11-10T10:50:11.519Z,10.90
2018-11-10T10:52:39.177Z,11.00
2018-11-10T10:55:06.928Z,11.00
2018-11-10T10:57:34.511Z,11.10
2018-11-10T11:00:02.069Z,11.00
2018-11-10T11:02:36.288Z,11.00
2018-11-10T11:05:09.389Z,10.90
2018-11-10T11:07:37.011Z,10.90
2018-11-10T11:10:05.530Z,10.90
2018-11-10T11:12:33.093Z,11.00
2018-11-10T11:15:00.775Z,11.10
2018-11-10T11:17:28.350Z,11.10
2018-11-10T11:19:56.750Z,11.10
2018-11-10T11:22:24.301Z,11.10
2018-11-10T11:24:51.902Z,11.10
2018-11-10T11:27:19.520Z,11.20
2018-11-10T11:29:47.261Z,11.30
2018-11-10T11:32:14.790Z,11.40
2018-11-10T11:34:42.399Z,11.40
2018-11-10T11:37:10.042Z,11.40
2018-11-10T11:39:37.798Z,11.50
2018-11-10T11:42:05.440Z,11.50
2018-11-10T11:44:33.039Z,11.60
2018-11-10T11:47:00.721Z,11.70
2018-11-10T11:49:28.286Z,11.70
2018-11-10T11:51:55.930Z,11.70
2018-11-10T11:54:23.545Z,11.60
2018-11-10T11:56:51.116Z,11.70
2018-11-10T11:59:18.792Z,11.70
2018-11-10T12:01:46.417Z,11.70
2018-11-10T12:04:14.061Z,11.80
2018-11-10T12:06:41.612Z,11.80
2018-11-10T12:09:10.186Z,11.90
2018-11-10T12:11:37.804Z,12.00
2018-11-10T12:14:05.588Z,12.00
2018-11-10T12:16:33.196Z,12.10
2018-11-10T12:19:00.734Z,12.10
2018-11-10T12:21:28.352Z,12.10
2018-11-10T12:23:55.966Z,12.20
2018-11-10T12:26:23.530Z,12.20
2018-11-10T12:28:51.237Z,12.20
2018-11-10T12:31:18.785Z,12.30
2018-11-10T12:33:46.456Z,12.30
2018-11-10T12:36:14.008Z,12.40
2018-11-10T12:38:41.638Z,12.40
2018-11-10T12:41:09.174Z,12.40
2018-11-10T12:43:36.774Z,12.40
2018-11-10T12:46:04.681Z,12.40
2018-11-10T12:48:32.265Z,12.50
2018-11-10T12:50:59.862Z,12.50
2018-11-10T12:53:27.443Z,12.50
2018-11-10T12:55:55.113Z,12.50
2018-11-10T12:58:22.709Z,12.50
2018-11-10T13:00:50.270Z,12.50
2018-11-10T13:03:17.916Z,12.50
2018-11-10T13:05:45.506Z,12.60
2018-11-10T13:08:13.198Z,12.60
2018-11-10T13:10:40.752Z,12.70
2018-11-10T13:13:08.311Z,12.70
2018-11-10T13:15:35.913Z,12.80
2018-11-10T13:18:03.545Z,12.80
2018-11-10T13:20:31.145Z,12.80
2018-11-10T13:22:58.731Z,12.90
2018-11-10T13:25:26.269Z,12.90
2018-11-10T13:27:53.892Z,12.90
2018-11-10T13:30:21.459Z,12.80
2018-11-10T13:32:49.043Z,12.80
2018-11-10T13:35:16.608Z,12.90
2018-11-10T13:37:44.239Z,13.00
2018-11-10T13:40:11.810Z,13.10
2018-11-10T13:42:39.442Z,13.20
2018-11-10T13:45:08.531Z,13.30
2018-11-10T13:47:36.140Z,13.30
2018-11-10T13:50:04.799Z,13.40
2018-11-10T13:52:32.749Z,13.40
2018-11-10T13:54:59.947Z,13.30
2018-11-10T13:57:27.606Z,13.20
2018-11-10T13:59:55.159Z,12.90
2018-11-10T14:02:22.736Z,12.80
2018-11-10T14:04:50.304Z,12.70
2018-11-10T14:07:17.954Z,12.60
2018-11-10T14:09:45.532Z,12.60
2018-11-10T14:12:13.088Z,12.50
2018-11-10T14:14:40.641Z,12.40
2018-11-10T14:17:08.250Z,12.40
2018-11-10T14:19:36.174Z,12.30
2018-11-10T14:22:03.932Z,12.30
2018-11-10T14:24:31.567Z,12.20
2018-11-10T14:26:59.254Z,12.20
2018-11-10T14:29:27.070Z,12.20
2018-11-10T14:31:54.695Z,12.20
2018-11-10T14:34:22.254Z,12.30
2018-11-10T14:36:50.072Z,12.30
2018-11-10T14:39:17.660Z,12.20
2018-11-10T14:41:45.237Z,12.10
2018-11-10T14:44:12.842Z,12.00
2018-11-10T14:46:40.419Z,11.90
2018-11-10T14:49:08.049Z,11.80
2018-11-10T14:51:35.667Z,11.70
2018-11-10T14:54:03.498Z,11.60
2018-11-10T14:56:31.106Z,11.50
2018-11-10T14:58:58.722Z,11.40
2018-11-10T15:01:26.587Z,11.40
2018-11-10T15:03:54.141Z,11.30
2018-11-10T15:06:21.775Z,11.20
2018-11-10T15:08:49.457Z,11.10
2018-11-10T15:11:17.135Z,11.10
2018-11-10T15:13:44.926Z,11.00
2018-11-10T15:16:12.651Z,11.00
2018-11-10T15:18:40.332Z,11.00
2018-11-10T15:21:07.954Z,10.80
2018-11-10T15:23:35.698Z,10.80
2018-11-10T15:26:03.406Z,10.70
2018-11-10T15:28:31.021Z,10.60
2018-11-10T15:30:58.683Z,10.50
2018-11-10T15:33:26.265Z,10.50
2018-11-10T15:35:53.875Z,10.40
2018-11-10T15:38:21.761Z,10.40
2018-11-10T15:40:49.374Z,10.30
2018-11-10T15:43:16.938Z,10.30
2018-11-10T15:45:44.565Z,10.20
2018-11-10T15:48:12.167Z,10.10
2018-11-10T15:50:39.804Z,10.10
2018-11-10T15:53:07.375Z,10.00
2018-11-10T15:55:34.964Z,9.90
2018-11-10T15:58:02.535Z,9.90
2018-11-10T16:00:30.126Z,9.90
2018-11-10T16:02:57.729Z,9.80
2018-11-10T16:05:25.315Z,9.70
2018-11-10T16:07:52.927Z,9.70
2018-11-10T16:10:20.623Z,9.60
2018-11-10T16:12:48.173Z,9.50
2018-11-10T16:15:16.844Z,9.50
2018-11-10T16:17:44.508Z,9.40
2018-11-10T16:20:16.050Z,9.40
2018-11-10T16:22:45.286Z,9.40
2018-11-10T16:25:12.912Z,9.30
2018-11-10T16:27:40.574Z,9.30
2018-11-10T16:30:10.072Z,9.20
2018-11-10T16:32:37.786Z,9.20
2018-11-10T16:35:05.995Z,9.20
2018-11-10T16:37:33.735Z,9.10
2018-11-10T16:40:01.432Z,9.10
2018-11-10T16:42:29.056Z,9.10
2018-11-10T16:44:56.788Z,9.20
2018-11-10T16:47:24.568Z,9.30
2018-11-10T16:49:53.175Z,9.50
2018-11-10T16:52:20.774Z,9.60
2018-11-10T16:54:48.362Z,9.60
2018-11-10T16:57:16.001Z,9.70
2018-11-10T16:59:43.605Z,9.70
2018-11-10T17:02:11.422Z,9.70
2018-11-10T17:04:38.999Z,9.70
2018-11-10T17:07:06.618Z,9.60
2018-11-10T17:09:34.310Z,9.60
2018-11-10T17:12:02.042Z,9.60
2018-11-10T17:14:29.751Z,9.60
2018-11-10T17:16:57.505Z,9.50
2018-11-10T17:19:25.167Z,9.50
2018-11-10T17:21:52.939Z,9.30
2018-11-10T17:24:20.477Z,9.20
2018-11-10T17:26:48.139Z,9.10
2018-11-10T17:29:16.203Z,9.10
2018-11-10T17:31:43.904Z,9.00
2018-11-10T17:34:11.590Z,9.00
2018-11-10T17:36:39.197Z,8.90
2018-11-10T17:39:07.967Z,8.90
2018-11-10T17:41:35.751Z,8.90
2018-11-10T17:44:03.555Z,8.80
2018-11-10T17:46:31.279Z,8.70
2018-11-10T17:48:58.965Z,8.70
2018-11-10T17:51:26.671Z,8.70
2018-11-10T17:53:54.355Z,8.70
2018-11-10T17:56:22.067Z,8.70
2018-11-10T17:58:49.845Z,8.70
2018-11-10T18:01:17.599Z,8.70
2018-11-10T18:03:45.248Z,8.60
2018-11-10T18:06:12.902Z,8.60
2018-11-10T18:08:40.877Z,8.60
2018-11-10T18:11:08.549Z,8.60
2018-11-10T18:13:36.255Z,8.60
2018-11-10T18:16:03.973Z,8.60
2018-11-10T18:18:32.299Z,8.50
2018-11-10T18:21:00.011Z,8.60
2018-11-10T18:23:27.899Z,8.50
2018-11-10T18:25:56.440Z,8.50
2018-11-10T18:28:24.257Z,8.50
2018-11-10T18:30:51.985Z,8.50
2018-11-10T18:33:19.693Z,8.50
2018-11-10T18:35:47.432Z,8.50
2018-11-10T18:38:15.963Z,8.50
2018-11-10T18:40:43.646Z,8.40
2018-11-10T18:43:11.527Z,8.30
2018-11-10T18:45:39.918Z,8.30
2018-11-10T18:48:07.705Z,8.30
2018-11-10T18:50:36.495Z,8.30
2018-11-10T18:53:04.406Z,8.30
2018-11-10T18:55:32.114Z,8.20
2018-11-10T18:57:59.824Z,8.20
2018-11-10T19:00:27.553Z,8.20
2018-11-10T19:02:55.198Z,8.10
2018-11-10T19:05:22.957Z,8.10
2018-11-10T19:07:50.701Z,8.10
2018-11-10T19:10:18.866Z,8.10
2018-11-10T19:12:48.033Z,8.10
2018-11-10T19:15:18.276Z,8.10
2018-11-10T19:17:46.947Z,8.20
2018-11-10T19:20:15.362Z,8.10
2018-11-10T19:22:43.121Z,8.20
2018-11-10T19:25:12.066Z,8.20
2018-11-10T19:27:40.405Z,8.20
2018-11-10T19:30:12.160Z,8.20
2018-11-10T19:32:39.886Z,8.20
2018-11-10T19:35:07.631Z,8.20
2018-11-10T19:37:35.378Z,8.20
2018-11-10T19:40:03.444Z,8.20
2018-11-10T19:42:31.184Z,8.20
2018-11-10T19:44:58.856Z,8.10
2018-11-10T19:47:26.593Z,8.10
2018-11-10T19:49:54.252Z,8.10
2018-11-10T19:52:23.261Z,8.10
2018-11-10T19:54:51.600Z,8.10
2018-11-10T19:57:19.450Z,8.10
2018-11-10T19:59:47.141Z,8.00
2018-11-10T20:02:14.905Z,8.00
2018-11-10T20:04:42.653Z,7.90
2018-11-10T20:07:10.366Z,7.90
2018-11-10T20:09:38.313Z,7.80
2018-11-10T20:12:06.031Z,7.80
2018-11-10T20:14:34.029Z,7.90
2018-11-10T20:17:02.020Z,7.90
2018-11-10T20:19:29.975Z,7.90
2018-11-10T20:21:59.297Z,8.00
2018-11-10T20:24:27.545Z,8.00
2018-11-10T20:26:55.459Z,8.00
2018-11-10T20:29:23.605Z,8.00
2018-11-10T20:31:51.326Z,8.00
2018-11-10T20:34:19.166Z,8.00
2018-11-10T20:36:46.915Z,7.90
2018-11-10T20:39:14.643Z,7.90
2018-11-10T20:41:42.627Z,7.90
2018-11-10T20:44:10.443Z,7.90
2018-11-10T20:46:38.170Z,7.90
2018-11-10T20:49:06.956Z,7.90
2018-11-10T20:51:34.659Z,7.90
2018-11-10T20:54:02.359Z,7.90
2018-11-10T20:56:30.050Z,7.90
2018-11-10T20:58:57.837Z,8.00
2018-11-10T21:01:25.545Z,8.00
2018-11-10T21:03:53.270Z,8.00
2018-11-10T21:06:20.996Z,8.00
2018-11-10T21:08:48.762Z,7.90
2018-11-10T21:11:16.577Z,7.90
2018-11-10T21:13:44.291Z,7.80
2018-11-10T21:16:12.187Z,7.80
2018-11-10T21:18:40.031Z,7.90
2018-11-10T21:21:07.707Z,7.90
2018-11-10T21:23:35.462Z,7.90
2018-11-10T21:26:03.204Z,7.90
2018-11-10T21:28:31.169Z,7.80
2018-11-10T21:30:59.614Z,7.80
2018-11-10T21:33:27.577Z,7.80
2018-11-10T21:35:55.348Z,7.80
2018-11-10T21:38:23.120Z,7.80
2018-11-10T21:40:50.894Z,7.90
2018-11-10T21:43:18.916Z,7.90
2018-11-10T21:45:46.656Z,7.90
2018-11-10T21:48:14.431Z,8.00
2018-11-10T21:50:42.793Z,7.90
2018-11-10T21:53:11.037Z,7.90
2018-11-10T21:55:38.999Z,7.90
2018-11-10T21:58:06.740Z,7.90
2018-11-10T22:00:34.444Z,7.90
2018-11-10T22:03:02.234Z,7.90
2018-11-10T22:05:30.044Z,8.00
2018-11-10T22:07:57.952Z,8.00
2018-11-10T22:10:25.676Z,8.00
2018-11-10T22:12:53.454Z,8.00
2018-11-10T22:15:22.303Z,8.00
2018-11-10T22:17:50.358Z,7.90
2018-11-10T22:20:21.466Z,7.90
2018-11-10T22:22:49.412Z,7.90
2018-11-10T22:25:17.396Z,7.90
2018-11-10T22:27:46.772Z,7.90
2018-11-10T22:30:15.866Z,7.90
2018-11-10T22:32:44.296Z,7.80
2018-11-10T22:35:12.823Z,7.80
2018-11-10T22:37:41.517Z,7.80
2018-11-10T22:40:12.118Z,7.90
2018-11-10T22:42:40.342Z,7.90
2018-11-10T22:45:10.097Z,7.80
2018-11-10T22:47:38.764Z,7.80
2018-11-10T22:50:08.397Z,7.80
2018-11-10T22:52:36.478Z,7.80
2018-11-10T22:55:04.513Z,7.80
2018-11-10T22:57:32.647Z,7.80
2018-11-10T23:00:00.476Z,7.80
2018-11-10T23:02:28.134Z,7.70
2018-11-10T23:04:55.864Z,7.70
2018-11-10T23:07:24.091Z,7.70
2018-11-10T23:09:51.770Z,7.70
2018-11-10T23:12:19.413Z,7.60
2018-11-10T23:14:47.021Z,7.60
2018-11-10T23:17:14.808Z,7.60
2018-11-10T23:19:42.459Z,7.70
2018-11-10T23:22:10.093Z,7.70
2018-11-10T23:24:38.000Z,7.70
2018-11-10T23:27:05.655Z,7.70
2018-11-10T23:29:33.402Z,7.70
2018-11-10T23:32:01.085Z,7.60
2018-11-10T23:34:28.950Z,7.70
2018-11-10T23:36:56.647Z,7.70
2018-11-10T23:39:24.311Z,7.70
2018-11-10T23:41:51.985Z,7.70
2018-11-10T23:44:19.669Z,7.70
2018-11-10T23:46:47.517Z,7.70
2018-11-10T23:49:15.297Z,7.70
2018-11-10T23:51:42.940Z,7.70
2018-11-10T23:54:11.076Z,7.80
2018-11-10T23:56:38.918Z,7.70
2018-11-10T23:59:06.646Z,7.70
